createdAt,value
2022-10-21T00:00:40.891Z,7.43
2022-10-21T00:03:29.046Z,7.88
2022-10-21T00:06:17.652Z,7.90
2022-10-21T00:09:05.284Z,8.55
2022-10-21T00:11:52.957Z,8.02
2022-10-21T00:14:40.353Z,8.82
2022-10-21T00:17:27.855Z,8.18
2022-10-21T00:20:19.188Z,7.50
2022-10-21T00:23:08.264Z,7.78
2022-10-21T00:25:58.470Z,7.30
2022-10-21T00:28:46.426Z,8.48
2022-10-21T00:31:34.748Z,6.82
2022-10-21T00:34:25.863Z,7.25
2022-10-21T00:37:17.658Z,10.27
2022-10-21T00:40:08.182Z,7.47
2022-10-21T00:42:55.914Z,9.98
2022-10-21T00:45:45.216Z,8.05
2022-10-21T00:48:38.115Z,8.63
2022-10-21T00:54:14.430Z,6.47
2022-10-21T00:57:03.322Z,10.32
2022-10-21T00:59:58.597Z,7.60
2022-10-21T01:02:46.632Z,10.35
2022-10-21T01:05:37.426Z,7.68
2022-10-21T01:08:28.935Z,7.10
2022-10-21T01:11:20.639Z,7.05
2022-10-21T01:14:57.274Z,8.40
2022-10-21T01:18:06.144Z,9.63
2022-10-21T01:25:23.730Z,15.00
2022-10-21T01:28:36.711Z,7.60
2022-10-21T01:31:39.560Z,7.47
2022-10-21T01:34:33.037Z,10.98
2022-10-21T01:37:29.314Z,11.05
2022-10-21T01:40:25.124Z,10.95
2022-10-21T01:43:22.052Z,6.90
2022-10-21T01:46:17.782Z,8.05
2022-10-21T01:49:15.811Z,11.10
2022-10-21T01:52:07.074Z,13.90
2022-10-21T01:55:00.194Z,10.57
2022-10-21T02:00:43.984Z,9.45
2022-10-21T02:03:38.413Z,10.20
2022-10-21T02:06:27.860Z,7.00
2022-10-21T02:09:15.504Z,7.53
2022-10-21T02:12:15.340Z,13.02
2022-10-21T02:15:09.131Z,9.02
2022-10-21T02:18:06.626Z,12.13
2022-10-21T02:21:00.338Z,9.90
2022-10-21T02:23:55.291Z,7.30
2022-10-21T02:26:43.201Z,11.02
2022-10-21T02:29:38.498Z,7.40
2022-10-21T02:32:40.243Z,9.52
2022-10-21T02:35:39.990Z,14.55
2022-10-21T02:38:32.889Z,20.35
2022-10-21T02:41:26.248Z,19.20
2022-10-21T02:44:14.411Z,17.60
2022-10-21T02:47:04.357Z,15.27
2022-10-21T02:49:51.913Z,15.95
2022-10-21T02:52:39.453Z,13.13
2022-10-21T02:55:27.329Z,13.95
2022-10-21T02:58:16.556Z,12.25
2022-10-21T03:01:04.248Z,14.15
2022-10-21T03:03:51.914Z,15.30
2022-10-21T03:06:39.435Z,10.75
2022-10-21T03:09:27.446Z,13.98
2022-10-21T03:12:15.092Z,12.30
2022-10-21T03:15:05.852Z,16.15
2022-10-21T03:17:53.650Z,16.00
2022-10-21T03:20:41.222Z,14.32
2022-10-21T03:23:28.710Z,16.38
2022-10-21T03:26:16.952Z,12.18
2022-10-21T03:29:04.484Z,15.60
2022-10-21T03:31:53.391Z,13.40
2022-10-21T03:34:40.865Z,10.88
2022-10-21T03:37:28.928Z,10.82
2022-10-21T03:40:18.240Z,12.88
2022-10-21T03:43:06.130Z,11.70
2022-10-21T03:45:53.796Z,11.75
2022-10-21T03:48:43.048Z,10.88
2022-10-21T03:51:30.736Z,8.98
2022-10-21T03:54:18.854Z,10.00
2022-10-21T03:57:07.084Z,11.02
2022-10-21T03:59:55.171Z,13.00
2022-10-21T04:02:42.774Z,11.73
2022-10-21T04:05:31.601Z,9.75
2022-10-21T04:08:19.242Z,12.27
2022-10-21T04:11:07.209Z,13.38
2022-10-21T04:13:54.764Z,11.77
2022-10-21T04:16:42.880Z,13.48
2022-10-21T04:19:30.514Z,14.80
2022-10-21T04:22:19.233Z,10.85
2022-10-21T04:25:07.554Z,9.90
2022-10-21T04:27:55.501Z,11.02
2022-10-21T04:30:43.174Z,12.10
2022-10-21T04:33:30.855Z,13.10
2022-10-21T04:36:18.765Z,12.15
2022-10-21T04:39:08.199Z,11.10
2022-10-21T04:41:56.422Z,10.55
2022-10-21T04:44:44.544Z,9.55
2022-10-21T04:47:32.008Z,11.75
2022-10-21T04:50:19.715Z,11.32
2022-10-21T04:53:07.403Z,10.52
2022-10-21T04:55:56.440Z,8.35
2022-10-21T04:58:44.034Z,10.05
2022-10-21T05:01:31.733Z,8.02
2022-10-21T05:04:19.723Z,9.52
2022-10-21T05:07:07.534Z,7.85
2022-10-21T05:09:54.977Z,7.53
2022-10-21T05:12:43.765Z,7.53
2022-10-21T05:15:31.686Z,8.32
2022-10-21T05:18:19.325Z,8.07
2022-10-21T05:21:06.990Z,8.73
2022-10-21T05:23:54.540Z,8.43
2022-10-21T05:26:42.029Z,9.98
2022-10-21T05:29:30.998Z,13.50
2022-10-21T05:32:18.811Z,8.50
2022-10-21T05:35:07.815Z,6.45
2022-10-21T05:37:55.789Z,7.10
2022-10-21T05:40:43.286Z,8.82
2022-10-21T05:43:30.954Z,6.63
2022-10-21T05:46:20.005Z,7.18
2022-10-21T05:49:08.109Z,8.23
2022-10-21T05:51:55.659Z,7.82
2022-10-21T05:54:43.108Z,9.63
2022-10-21T05:57:33.734Z,9.50
2022-10-21T06:00:21.834Z,13.10
2022-10-21T06:03:10.662Z,9.10
2022-10-21T06:05:58.941Z,7.78
2022-10-21T06:08:46.601Z,7.95
2022-10-21T06:11:34.373Z,11.23
2022-10-21T06:14:22.000Z,8.15
2022-10-21T06:17:11.476Z,7.93
2022-10-21T06:20:01.661Z,10.07
2022-10-21T06:22:51.573Z,10.25
2022-10-21T06:25:39.476Z,9.32
2022-10-21T06:28:29.473Z,13.40
2022-10-21T06:31:21.482Z,12.20
2022-10-21T06:34:09.142Z,9.05
2022-10-21T06:36:57.965Z,11.23
2022-10-21T06:39:45.774Z,17.48
2022-10-21T06:42:33.224Z,7.68
2022-10-21T06:45:20.873Z,12.25
2022-10-21T06:48:08.818Z,7.88
2022-10-21T06:51:01.418Z,12.93
2022-10-21T06:53:55.582Z,13.40
2022-10-21T06:56:43.203Z,10.02
2022-10-21T06:59:31.239Z,10.80
2022-10-21T07:02:18.786Z,9.88
2022-10-21T07:05:07.403Z,9.38
2022-10-21T07:07:55.029Z,11.50
2022-10-21T07:10:46.354Z,6.25
2022-10-21T07:13:36.317Z,12.60
2022-10-21T07:16:27.356Z,18.70
2022-10-21T07:19:15.546Z,8.93
2022-10-21T07:22:03.119Z,21.92
2022-10-21T07:24:50.827Z,12.27
2022-10-21T07:27:41.389Z,13.90
2022-10-21T07:30:31.438Z,15.95
2022-10-21T07:33:18.851Z,13.70
2022-10-21T07:36:09.163Z,11.88
2022-10-21T07:39:01.061Z,12.02
2022-10-21T07:41:51.798Z,12.00
2022-10-21T07:44:40.525Z,13.25
2022-10-21T07:47:28.781Z,16.48
2022-10-21T07:50:17.620Z,16.95
2022-10-21T07:53:11.961Z,15.88
2022-10-21T07:56:07.401Z,17.20
2022-10-21T07:58:55.857Z,17.33
2022-10-21T08:04:35.118Z,13.38
2022-10-21T08:07:22.704Z,13.25
2022-10-21T08:10:10.739Z,16.50
2022-10-21T08:12:58.469Z,15.15
2022-10-21T08:15:47.887Z,15.05
2022-10-21T08:18:36.746Z,15.00
2022-10-21T08:21:24.481Z,15.52
2022-10-21T08:24:12.018Z,17.13
2022-10-21T08:26:59.984Z,16.02
2022-10-21T08:29:49.107Z,14.15
2022-10-21T08:32:36.970Z,16.00
2022-10-21T08:35:26.401Z,18.95
2022-10-21T08:38:14.095Z,19.23
2022-10-21T08:41:04.706Z,18.20
2022-10-21T08:43:54.485Z,18.50
2022-10-21T08:46:50.749Z,15.95
2022-10-21T08:49:52.029Z,19.58
2022-10-21T08:52:48.478Z,14.80
2022-10-21T08:55:42.236Z,13.25
2022-10-21T08:58:29.770Z,12.45
2022-10-21T09:01:27.439Z,14.07
2022-10-21T09:04:28.995Z,17.55
2022-10-21T09:07:30.750Z,10.25
2022-10-21T09:10:33.333Z,12.77
2022-10-21T09:13:41.233Z,10.35
2022-10-21T09:16:47.301Z,14.43
2022-10-21T09:19:53.473Z,12.88
2022-10-21T09:23:03.677Z,12.20
2022-10-21T09:26:00.978Z,18.48
2022-10-21T09:28:49.918Z,15.15
2022-10-21T09:31:37.450Z,20.90
2022-10-21T09:34:44.713Z,12.95
2022-10-21T09:37:41.628Z,9.30
2022-10-21T09:40:37.967Z,19.15
2022-10-21T09:43:28.647Z,13.52
2022-10-21T09:46:17.195Z,19.10
2022-10-21T09:49:41.449Z,11.40
2022-10-21T09:52:14.030Z,10.45
2022-10-21T09:55:01.862Z,12.55
2022-10-21T09:57:58.516Z,17.48
2022-10-21T10:00:51.466Z,14.20
2022-10-21T10:06:37.949Z,16.35
2022-10-21T10:09:31.439Z,17.95
2022-10-21T10:12:24.959Z,16.92
2022-10-21T10:15:33.367Z,17.02
2022-10-21T10:18:24.893Z,11.77
2022-10-21T10:21:15.260Z,14.38
2022-10-21T10:24:05.270Z,17.45
2022-10-21T10:26:53.700Z,22.75
2022-10-21T10:29:44.040Z,13.85
2022-10-21T10:32:36.389Z,18.27
2022-10-21T10:35:33.249Z,17.53
2022-10-21T10:38:26.561Z,16.33
2022-10-21T10:41:18.400Z,15.75
2022-10-21T10:44:25.932Z,16.17
2022-10-21T10:47:25.227Z,18.13
2022-10-21T10:50:48.240Z,23.10
2022-10-21T10:53:39.479Z,17.38
2022-10-21T10:56:32.095Z,16.67
2022-10-21T10:59:33.868Z,16.52
2022-10-21T11:02:36.213Z,13.95
2022-10-21T11:05:29.784Z,13.10
2022-10-21T11:08:30.757Z,13.23
2022-10-21T11:11:27.934Z,12.50
2022-10-21T11:14:21.810Z,10.93
2022-10-21T11:17:13.836Z,11.35
2022-10-21T11:20:18.588Z,11.40
2022-10-21T11:23:35.893Z,14.77
2022-10-21T11:26:38.691Z,17.85
2022-10-21T11:29:40.937Z,15.65
2022-10-21T11:32:41.358Z,10.57
2022-10-21T11:35:53.067Z,15.55
2022-10-21T11:39:18.274Z,13.25
2022-10-21T11:42:21.880Z,13.77
2022-10-21T11:45:50.661Z,19.23
2022-10-21T11:49:13.880Z,14.45
2022-10-21T11:52:14.163Z,18.05
2022-10-21T11:55:34.472Z,15.68
2022-10-21T11:58:39.658Z,8.35
2022-10-21T12:01:38.051Z,8.48
2022-10-21T12:04:37.705Z,13.48
2022-10-21T12:07:54.497Z,10.73
2022-10-21T12:10:52.179Z,11.95
2022-10-21T12:13:48.530Z,9.43
2022-10-21T12:16:37.227Z,14.98
2022-10-21T12:19:27.140Z,15.73
2022-10-21T12:22:15.735Z,16.42
2022-10-21T12:25:18.581Z,13.20
2022-10-21T12:28:20.511Z,8.88
2022-10-21T12:31:34.254Z,19.10
2022-10-21T12:34:22.720Z,12.98
2022-10-21T12:38:06.294Z,10.13
2022-10-21T12:41:36.558Z,14.52
2022-10-21T12:44:28.928Z,13.18
2022-10-21T12:47:29.952Z,14.43
2022-10-21T12:50:29.819Z,18.48
2022-10-21T12:53:34.670Z,15.35
2022-10-21T12:56:34.487Z,14.88
2022-10-21T12:59:35.569Z,14.95
2022-10-21T13:02:29.242Z,10.43
2022-10-21T13:06:02.767Z,17.13
2022-10-21T13:08:56.148Z,15.60
2022-10-21T13:11:43.782Z,17.77
2022-10-21T13:14:41.308Z,14.55
2022-10-21T13:17:50.120Z,19.80
2022-10-21T13:20:49.455Z,13.77
2022-10-21T13:23:45.117Z,18.95
2022-10-21T13:26:33.441Z,21.08
2022-10-21T13:29:42.616Z,16.13
2022-10-21T13:32:33.483Z,14.25
2022-10-21T13:35:33.979Z,15.38
2022-10-21T13:38:26.760Z,13.05
2022-10-21T13:41:24.485Z,13.13
2022-10-21T13:44:29.899Z,19.45
2022-10-21T13:47:30.273Z,12.82
2022-10-21T13:50:25.138Z,8.32
2022-10-21T13:53:28.516Z,11.43
2022-10-21T13:56:25.031Z,12.35
2022-10-21T13:59:24.932Z,9.65
2022-10-21T14:02:27.750Z,14.43
2022-10-21T14:05:35.657Z,11.90
2022-10-21T14:08:29.473Z,15.57
2022-10-21T14:11:21.969Z,11.30
2022-10-21T14:14:15.994Z,12.43
2022-10-21T14:17:08.983Z,12.00
2022-10-21T14:20:07.730Z,10.63
2022-10-21T14:22:57.066Z,10.32
2022-10-21T14:25:44.847Z,12.70
2022-10-21T14:28:34.567Z,10.18
2022-10-21T14:31:22.452Z,14.70
2022-10-21T14:34:23.476Z,9.77
2022-10-21T14:37:22.328Z,13.45
2022-10-21T14:40:22.374Z,9.10
2022-10-21T14:43:22.246Z,6.90
2022-10-21T14:46:12.063Z,8.88
2022-10-21T14:49:03.270Z,8.52
2022-10-21T14:51:52.292Z,9.43
2022-10-21T14:54:47.246Z,9.95
2022-10-21T14:57:43.369Z,9.07
2022-10-21T15:00:34.587Z,9.15
2022-10-21T15:03:39.629Z,8.25
2022-10-21T15:06:30.313Z,8.93
2022-10-21T15:09:23.395Z,7.75
2022-10-21T15:12:20.728Z,8.30
2022-10-21T15:15:53.399Z,7.15
2022-10-21T15:18:47.364Z,5.55
2022-10-21T15:21:40.581Z,9.55
2022-10-21T15:24:42.972Z,10.30
2022-10-21T15:27:42.189Z,8.30
2022-10-21T15:30:35.148Z,6.53
2022-10-21T15:33:23.497Z,5.80
2022-10-21T15:36:13.278Z,9.13
2022-10-21T15:39:04.262Z,5.90
2022-10-21T15:42:02.201Z,7.00
2022-10-21T15:44:52.075Z,6.18
2022-10-21T15:47:39.745Z,4.82
2022-10-21T15:50:28.498Z,5.80
2022-10-21T15:53:16.230Z,5.82
2022-10-21T15:56:03.823Z,5.60
2022-10-21T15:58:51.277Z,5.60
2022-10-21T16:01:40.158Z,7.93
2022-10-21T16:04:30.945Z,5.78
2022-10-21T16:07:23.375Z,6.90
2022-10-21T16:10:27.248Z,6.50
2022-10-21T16:13:19.260Z,6.07
2022-10-21T16:16:20.054Z,5.53
2022-10-21T16:19:10.437Z,5.32
2022-10-21T16:21:58.384Z,4.93
2022-10-21T16:24:46.132Z,3.20
2022-10-21T16:27:57.832Z,3.65
2022-10-21T16:30:41.802Z,3.55
2022-10-21T16:33:30.258Z,3.53
2022-10-21T16:36:22.327Z,4.30
2022-10-21T16:39:16.644Z,3.85
2022-10-21T16:42:03.962Z,3.15
2022-10-21T16:44:51.606Z,3.50
2022-10-21T16:47:40.048Z,5.35
2022-10-21T16:50:39.261Z,3.60
2022-10-21T16:53:29.071Z,2.30
2022-10-21T16:56:17.380Z,3.50
2022-10-21T17:00:20.782Z,5.22
2022-10-21T17:03:13.334Z,4.00
2022-10-21T17:06:01.161Z,3.13
2022-10-21T17:08:52.628Z,2.88
2022-10-21T17:11:42.551Z,3.45
2022-10-21T17:14:30.406Z,3.20
2022-10-21T17:17:21.039Z,5.22
2022-10-21T17:20:11.403Z,4.88
2022-10-21T17:22:58.962Z,3.13
2022-10-21T17:25:47.989Z,3.45
2022-10-21T17:28:35.489Z,4.28
2022-10-21T17:31:27.515Z,4.45
2022-10-21T17:34:28.103Z,5.07
2022-10-21T17:37:15.805Z,4.00
2022-10-21T17:40:03.419Z,4.25
2022-10-21T17:42:55.534Z,6.72
2022-10-21T17:45:43.079Z,5.18
2022-10-21T17:48:30.655Z,5.68
2022-10-21T17:51:19.142Z,4.60
2022-10-21T17:54:07.561Z,5.15
2022-10-21T17:56:56.757Z,5.95
2022-10-21T17:59:47.410Z,6.57
2022-10-21T18:02:35.904Z,8.35
2022-10-21T18:05:23.412Z,9.05
2022-10-21T18:08:11.387Z,11.48
2022-10-21T18:11:00.450Z,11.60
2022-10-21T18:13:55.291Z,13.35
2022-10-21T18:16:47.389Z,14.90
2022-10-21T18:19:40.375Z,16.63
2022-10-21T18:22:27.807Z,18.05
2022-10-21T18:25:18.434Z,17.52
2022-10-21T18:28:16.262Z,15.48
2022-10-21T18:31:10.362Z,11.95
2022-10-21T18:34:12.487Z,10.30
2022-10-21T18:37:00.504Z,9.73
2022-10-21T18:39:49.510Z,8.60
2022-10-21T18:42:47.173Z,8.88
2022-10-21T18:45:38.430Z,9.38
2022-10-21T18:48:31.583Z,10.05
2022-10-21T18:54:10.577Z,9.55
2022-10-21T18:57:16.064Z,11.15
2022-10-21T19:00:09.793Z,10.10
2022-10-21T19:02:58.400Z,10.13
2022-10-21T19:06:02.108Z,8.93
2022-10-21T19:09:40.668Z,8.90
2022-10-21T19:12:30.948Z,8.95
2022-10-21T19:15:24.512Z,10.25
2022-10-21T19:18:18.385Z,9.52
2022-10-21T19:21:09.642Z,10.10
2022-10-21T19:24:09.761Z,8.93
2022-10-21T19:27:20.259Z,9.13
2022-10-21T19:33:19.434Z,10.63
2022-10-21T19:36:19.234Z,8.07
2022-10-21T19:39:14.514Z,9.18
2022-10-21T19:42:06.648Z,9.40
2022-10-21T19:44:54.344Z,8.70
2022-10-21T19:48:18.830Z,8.73
2022-10-21T19:51:08.735Z,7.88
2022-10-21T19:54:05.657Z,7.57
2022-10-21T19:57:01.482Z,8.98
2022-10-21T20:00:09.633Z,8.02
2022-10-21T20:03:03.078Z,7.28
2022-10-21T20:05:50.758Z,8.07
2022-10-21T20:08:42.360Z,8.13
2022-10-21T20:11:35.846Z,8.70
2022-10-21T20:14:25.507Z,7.57
2022-10-21T20:23:24.104Z,9.13
2022-10-21T20:26:14.168Z,8.48
2022-10-21T20:29:19.455Z,8.48
2022-10-21T20:32:09.472Z,9.35
2022-10-21T20:35:01.177Z,8.90
2022-10-21T20:37:55.867Z,9.00
2022-10-21T20:40:48.272Z,8.48
2022-10-21T20:46:46.991Z,11.40
2022-10-21T20:49:37.491Z,9.10
2022-10-21T20:52:34.818Z,8.13
2022-10-21T20:55:22.899Z,10.43
2022-10-21T20:58:13.679Z,7.90
2022-10-21T21:01:08.574Z,7.95
2022-10-21T21:07:18.569Z,7.30
2022-10-21T21:10:15.089Z,7.70
2022-10-21T21:13:18.689Z,8.00
2022-10-21T21:16:08.520Z,7.10
2022-10-21T21:19:03.085Z,6.22
2022-10-21T21:21:58.199Z,7.00
2022-10-21T21:24:48.352Z,7.70
2022-10-21T21:27:41.886Z,6.70
2022-10-21T21:30:32.285Z,8.32
2022-10-21T21:33:25.813Z,6.65
2022-10-21T21:36:16.538Z,7.38
2022-10-21T21:39:10.192Z,6.57
2022-10-21T21:42:03.119Z,5.55
2022-10-21T21:44:53.758Z,7.40
2022-10-21T21:47:44.552Z,6.57
2022-10-21T21:50:34.058Z,5.20
2022-10-21T21:53:24.859Z,8.30
2022-10-21T21:56:13.481Z,5.35
2022-10-21T21:59:04.964Z,5.55
2022-10-21T22:01:54.148Z,5.47
2022-10-21T22:04:41.804Z,5.88
2022-10-21T22:07:29.438Z,8.05
2022-10-21T22:10:17.019Z,6.00
2022-10-21T22:13:04.671Z,6.65
2022-10-21T22:15:52.068Z,4.93
2022-10-21T22:18:41.185Z,6.05
2022-10-21T22:21:31.450Z,9.02
2022-10-21T22:24:18.950Z,5.72
2022-10-21T22:27:07.085Z,5.60
2022-10-21T22:29:54.764Z,5.88
2022-10-21T22:32:43.346Z,5.95
2022-10-21T22:35:33.148Z,5.75
2022-10-21T22:38:20.650Z,5.90
2022-10-21T22:41:12.163Z,5.47
2022-10-21T22:44:00.408Z,5.18
2022-10-21T22:46:47.781Z,5.18
2022-10-21T22:49:35.403Z,6.38
2022-10-21T22:52:24.166Z,5.03
2022-10-21T22:55:11.704Z,4.60
2022-10-21T22:57:59.482Z,6.68
2022-10-21T23:00:47.664Z,6.55
2022-10-21T23:03:35.725Z,7.53
2022-10-21T23:06:23.601Z,5.07
2022-10-21T23:09:12.634Z,5.55
2022-10-21T23:12:00.934Z,5.22
2022-10-21T23:14:48.741Z,5.22
2022-10-21T23:17:36.190Z,4.82
2022-10-21T23:20:23.825Z,4.97
2022-10-21T23:23:11.758Z,4.78
2022-10-21T23:26:02.755Z,5.57
2022-10-21T23:28:50.247Z,6.15
2022-10-21T23:31:37.713Z,6.38
2022-10-21T23:34:25.241Z,5.75
2022-10-21T23:37:12.812Z,4.78
2022-10-21T23:40:00.578Z,4.95
2022-10-21T23:42:49.502Z,6.57
2022-10-21T23:45:37.193Z,5.68
2022-10-21T23:48:24.767Z,5.78
2022-10-21T23:51:12.537Z,8.50
2022-10-21T23:54:00.023Z,6.70
2022-10-21T23:56:47.598Z,6.30
2022-10-21T23:59:36.542Z,8.45
